KPSC

Tri-Cities Airport

Pasco, Washington, USA
METAR KPSC 231053Z AUTO 36007KT 10SM CLR 13/12 A2972 RMK AO2 SLP060 T01330117
Observed Flight Rules
May-23 @ 10:53 UTC (11 minutes ago) Visual Flight Rules
Wind Visibility Clouds
360° at 7 knots 10 miles
  • Clear skies
Temperatures Readings
Current 13°C / 55°F
Dewpoint 12°C / 54°F
Humidity 94%
Altimeter 29.72" Hg
Pressure 1006 hPa
Elevation 121
METAR KPSC 231053Z AUTO 36007KT 10SM CLR 13/12 A2972 RMK AO2 SLP060 T01330117
Observed Flight Rules
May-23 @ 10:53 UTC
(11 minutes ago)
VFR
Wind Visibility
360° at 7 knots 10 miles
Clouds
  • Clear skies
Temperature Dewpoint
13°C / 55°F 12°C / 54°F
Humidity Altimeter Pressure
94% 29.72" Hg 1006 hPa